Detall de PIREP

Printer-friendly versionPDF version

[2012/12/06 15:28:00]
Flight IATA:CT3242
Pilot Number:012
Company ICAO:CAT
Aircraft Type:B738/F
PAX:160
Departing Airport: LEPA
Destination Airport: LBSF
Alternate Airport:LBWN
Online: VATSIM
Route:MORSS/M080F360 UM603 ALG/M080F370 UL5 KEB UL614 NISVA
Flight Level:F370
No Slew and time accel
No pause
Crash detect
Detect pilot in Cockpit between each 30 and 45 minutes
15:28 Zero fuel Weight: 121245 Lbs, Fuel Weight: 20593 Lbs
15:28 VATSIM:LEPA 061500Z 07006KT 9999 SCT035 14/08 Q1019 NOSIG
15:28 VATSIM:LBSF 061500Z 28005MPS 9999 OVC036 00/M04 Q1006 NOSIG
15:28 VOICE CATALONIAN
15:32 Parking Brakes off
15:35 Take-off
15:35 Take off Weight: 141200 Lbs
15:35 Wind: 072º @ 006 Knots Heading: 237º
15:35 POS N39º 33´ 09´´ E002º 43´ 20´´
15:35 Gear Up: 162 Knots
15:35 Flaps:3 at 162 Knots
15:35 Flaps:2 at 177 Knots
15:35 Flaps:0 at 181 Knots
15:50 Wind:309º@064 Knots Heading: 052º Ground Speed: 488 Knots Altitude 30216 ft
16:05 Wind:306º@075 Knots Heading: 066º Ground Speed: 497 Knots Altitude 36089 ft
16:19 TOC
16:19 Fuel Weight: 13812 Lb
16:20 Wind:304º@079 Knots Heading: 059º Ground Speed: 497 Knots Altitude 36952 ft
16:35 Wind:301º@068 Knots Heading: 063º Ground Speed: 500 Knots Altitude 36856 ft
16:50 Wind:296º@054 Knots Heading: 052º Ground Speed: 488 Knots Altitude 36758 ft
17:05 Wind:286º@045 Knots Heading: 070º Ground Speed: 498 Knots Altitude 36837 ft
17:20 Wind:278º@040 Knots Heading: 106º Ground Speed: 501 Knots Altitude 36919 ft
17:29 TOD
17:29 Fuel Weight: 7728 Lb
17:35 Wind:244º@022 Knots Heading: 110º Ground Speed: 442 Knots Altitude 24589 ft
17:45 Flaps:1 at 245 Knots
17:48 Flaps:2 at 191 Knots
17:48 Flaps:3 at 188 Knots
17:50 Wind:308º@007 Knots Heading: 303º Ground Speed: 182 Knots Altitude 4940 ft
17:50 Flaps:4 at 182 Knots
17:50 Gear Down: 182 Knots
17:50 Flaps:5 at 165 Knots
17:50 Flaps:6 at 150 Knots
17:51 Flaps:7 at 139 Knots
17:51 Flaps:8 at 139 Knots
17:54 TouchDown:Rate -109 ft/min Speed: 120 Knots
17:54 VATSIM:LBSF 061730Z 26004MPS 9999 OVC035 01/M02 Q1008 NOSIG
17:54 Land
17:54 Wind:260º@008 Knots
17:54 Heading: 275º
17:54 Flight Duration: 02:19
17:54 Landing Weight: 127779 Lbs
17:54 POS N42º 41´ 48´´ E023º 25´ 20´´
17:57 Parking brakes on
17:57 Block to Block Duration: 02:25
17:57 Final Fuel: 6364 Lbls
17:57 Spent Fuel: 14228 Lbls
17:57 Flight Length: 1047 NM
17:57 TOD Land Length: 131 NM

Exportar CSV

Powered by Drupal - Modified by Danger4k